logo tempoitalia

Diretta Meteo Taraz, Kazakhstanlunedì 31 agosto ore 11:00

Mappa
Sereno 25 °C Temporale nelle vicinanze 24 Ore: T.min 19 T.max 35
Ponente Nord Km/h 21.6 Punto di rugiada: 7 °C Umidità: 31% Visibilità: 10 Km
Il sole sorge alle: 05:38 Il sole tramonta alle: 18:52
31 Agosto 2026 11:00 tempo osservato: Temporale nelle vicinanze Temporale nelle vicinanze 25 31 1011 vento: Nord N 21.6
31 Agosto 2026 10:30 tempo osservato: Temporale nelle vicinanze Temporale nelle vicinanze 25 31 1011 vento: Nord N 25.2
31 Agosto 2026 10:00 tempo osservato: Sereno Sereno 24 33 1011 vento: Nord N/NO 25.2
31 Agosto 2026 09:30 tempo osservato: Sereno Sereno 24 35 1011 vento: Nord N/NO 14.4
31 Agosto 2026 09:00 tempo osservato: Sereno Sereno 24 35 1010 vento: Nord O/NO 10.8
31 Agosto 2026 08:30 tempo osservato: Sereno Sereno 24 33 1010 vento: Nord O 10.8
31 Agosto 2026 08:00 tempo osservato: Sereno Sereno 22 37 1010 vento: Nord O 10.8
31 Agosto 2026 07:30 tempo osservato: Sereno Sereno 21 40 1010 vento: Nord O/SO 14.4
31 Agosto 2026 07:00 tempo osservato: Sereno Sereno 19 45 1009 vento: Nord O 18
31 Agosto 2026 06:30 tempo osservato: Sereno Sereno 20 42 1009 vento: Nord NO 10.8
31 Agosto 2026 06:00 tempo osservato: Sereno Sereno 21 43 1009 vento: Nord NO 10.8
31 Agosto 2026 05:30 tempo osservato: Sereno Sereno 20 49 1008 vento: Nord O 14.4
31 Agosto 2026 05:00 tempo osservato: Sereno Sereno 22 40 1008 vento: Nord S/SE 14.4
31 Agosto 2026 04:30 tempo osservato: Sereno Sereno 24 35 1008 vento: Nord S 21.6
31 Agosto 2026 04:00 tempo osservato: Sereno Sereno 22 40 1008 vento: Nord S/SE 10.8
31 Agosto 2026 03:30 tempo osservato: Sereno Sereno 23 40 1008 vento: Nord S 18
31 Agosto 2026 03:00 tempo osservato: Sereno Sereno 22 40 1009 vento: Nord S 21.6
31 Agosto 2026 02:30 tempo osservato: Sereno Sereno 21 43 1009 vento: Nord S 18
31 Agosto 2026 02:00 tempo osservato: Sereno Sereno 22 37 1009 vento: Nord S/SO 18
31 Agosto 2026 01:30 tempo osservato: Sereno Sereno 21 43 1009 vento: Nord S/SO 14.4
31 Agosto 2026 01:00 tempo osservato: Sereno Sereno 21 43 1010 vento: Nord S/SO 14.4
31 Agosto 2026 00:30 tempo osservato: Sereno Sereno 21 43 1010 vento: Nord O 10.8
31 Agosto 2026 00:00 tempo osservato: Sereno Sereno 21 46 1010 vento: Nord O/SO 10.8
30 Agosto 2026 23:30 tempo osservato: Sereno Sereno 22 40 1010 vento: Nord SO 14.4
30 Agosto 2026 23:00 tempo osservato: Sereno Sereno 23 38 1011 vento: Nord O 10.8
30 Agosto 2026 22:30 tempo osservato: Sereno Sereno 24 35 1011 vento: Nord O 10.8
30 Agosto 2026 22:00 tempo osservato: Sereno Sereno 24 38 1011 vento: Nord N 7.2
30 Agosto 2026 21:30 tempo osservato: Sereno Sereno 25 33 1011 vento: Nord N 7.2
30 Agosto 2026 21:00 tempo osservato: Sereno Sereno 26 29 1011 vento: Nord N 0
30 Agosto 2026 20:30 tempo osservato: Sereno Sereno 28 26 1010 vento: Nord N 0
30 Agosto 2026 20:00 tempo osservato: Sereno Sereno 31 23 1010 vento: Nord N 7.2
30 Agosto 2026 19:30 tempo osservato: Sereno Sereno 32 22 1010 vento: Nord E 10.8
30 Agosto 2026 19:00 tempo osservato: Sereno Sereno 33 21 1010 vento: Nord E/NE 14.4
30 Agosto 2026 18:30 tempo osservato: Sereno Sereno 33 21 1010 vento: Nord NE 14.4
30 Agosto 2026 18:00 tempo osservato: Sereno Sereno 34 20 1010 vento: Nord N/NE 14.4
30 Agosto 2026 17:30 tempo osservato: Sereno Sereno 34 20 1010 vento: Nord E 18
30 Agosto 2026 17:00 tempo osservato: Sereno Sereno 34 18 1010 vento: Nord E/NE 14.4
30 Agosto 2026 16:30 tempo osservato: Sereno Sereno 34 18 1010 vento: Nord E/NE 14.4
30 Agosto 2026 16:00 tempo osservato: Sereno Sereno 34 18 1010 vento: Nord E 10.8
30 Agosto 2026 15:30 tempo osservato: Sereno Sereno 34 18 1011 vento: Nord E/NE 14.4
30 Agosto 2026 15:00 tempo osservato: Sereno Sereno 34 18 1011 vento: Nord N/NE 14.4
30 Agosto 2026 14:30 tempo osservato: Sereno Sereno 35 17 1011 vento: Nord NE 14.4
30 Agosto 2026 14:00 tempo osservato: Sereno Sereno 33 19 1011 vento: Nord N/NO 14.4
30 Agosto 2026 13:30 tempo osservato: Sereno Sereno 33 19 1011 vento: Nord N/NE 10.8
30 Agosto 2026 13:00 tempo osservato: Sereno Sereno 33 19 1011 vento: Nord N 7.2
30 Agosto 2026 12:30 tempo osservato: Sereno Sereno 32 21 1012 vento: Nord N/NO 10.8
30 Agosto 2026 12:00 tempo osservato: Sereno Sereno 32 19 1012 vento: Nord N 7.2